createdAt,value
2018-07-21T00:01:17.924Z,8.73
2018-07-21T00:03:21.057Z,5.63
2018-07-21T00:05:24.184Z,6.60
2018-07-21T00:07:27.330Z,6.37
2018-07-21T00:09:30.219Z,6.47
2018-07-21T00:11:33.328Z,6.90
2018-07-21T00:13:36.516Z,7.30
2018-07-21T00:15:39.624Z,6.70
2018-07-21T00:17:43.415Z,5.80
2018-07-21T00:19:46.511Z,7.13
2018-07-21T00:21:49.474Z,6.23
2018-07-21T00:23:52.563Z,7.17
2018-07-21T00:25:55.585Z,7.03
2018-07-21T00:27:58.451Z,6.97
2018-07-21T00:30:01.453Z,7.33
2018-07-21T00:32:04.329Z,7.63
2018-07-21T00:34:07.263Z,7.67
2018-07-21T00:36:10.238Z,7.13
2018-07-21T00:38:13.317Z,7.90
2018-07-21T00:40:16.407Z,7.53
2018-07-21T00:42:19.512Z,7.93
2018-07-21T00:44:22.611Z,8.30
2018-07-21T00:46:25.696Z,7.00
2018-07-21T00:48:28.803Z,8.40
2018-07-21T00:50:31.884Z,7.00
2018-07-21T00:52:35.124Z,8.70
2018-07-21T00:54:38.208Z,7.80
2018-07-21T00:56:41.311Z,7.90
2018-07-21T00:58:44.215Z,8.30
2018-07-21T01:00:47.315Z,7.83
2018-07-21T01:02:50.460Z,7.77
2018-07-21T01:04:53.600Z,9.57
2018-07-21T01:06:56.829Z,8.97
2018-07-21T01:08:59.971Z,10.93
2018-07-21T01:11:03.152Z,8.50
2018-07-21T01:13:06.247Z,9.40
2018-07-21T01:15:09.983Z,8.53
2018-07-21T01:17:12.972Z,8.70
2018-07-21T01:19:15.883Z,8.03
2018-07-21T01:21:18.802Z,8.33
2018-07-21T01:23:21.927Z,9.40
2018-07-21T01:25:25.060Z,8.70
2018-07-21T01:27:28.313Z,9.57
2018-07-21T01:29:31.423Z,9.43
2018-07-21T01:31:34.563Z,9.73
2018-07-21T01:33:37.699Z,10.13
2018-07-21T01:35:40.883Z,8.37
2018-07-21T01:37:44.020Z,10.13
2018-07-21T01:39:47.156Z,9.50
2018-07-21T01:41:50.287Z,10.13
2018-07-21T01:43:53.432Z,10.03
2018-07-21T01:45:56.679Z,10.30
2018-07-21T01:47:59.816Z,10.90
2018-07-21T01:50:02.988Z,11.77
2018-07-21T01:52:06.131Z,11.40
2018-07-21T01:54:09.319Z,10.07
2018-07-21T01:56:12.472Z,7.97
2018-07-21T01:58:15.590Z,10.50
2018-07-21T02:00:18.715Z,9.70
2018-07-21T02:02:21.817Z,9.33
2018-07-21T02:04:25.059Z,9.20
2018-07-21T02:06:28.179Z,8.77
2018-07-21T02:08:32.175Z,9.33
2018-07-21T02:10:35.267Z,11.90
2018-07-21T02:12:38.365Z,8.93
2018-07-21T02:14:41.428Z,8.73
2018-07-21T02:16:44.521Z,10.33
2018-07-21T02:18:47.625Z,10.13
2018-07-21T02:20:50.712Z,8.97
2018-07-21T02:22:53.788Z,10.57
2018-07-21T02:24:56.871Z,9.80
2018-07-21T02:26:59.954Z,9.77
2018-07-21T02:29:03.052Z,9.80
2018-07-21T02:31:05.955Z,10.10
2018-07-21T02:33:08.835Z,10.90
2018-07-21T02:35:11.933Z,9.97
2018-07-21T02:37:15.020Z,11.50
2018-07-21T02:39:18.117Z,10.00
2018-07-21T02:41:21.071Z,9.33
2018-07-21T02:43:24.183Z,9.93
2018-07-21T02:45:27.286Z,10.90
2018-07-21T02:47:30.531Z,11.20
2018-07-21T02:49:33.648Z,9.80
2018-07-21T02:51:36.564Z,9.57
2018-07-21T02:53:40.243Z,9.90
2018-07-21T02:55:43.332Z,11.40
2018-07-21T02:57:46.424Z,11.30
2018-07-21T02:59:49.515Z,10.03
2018-07-21T03:01:52.527Z,11.17
2018-07-21T03:03:55.684Z,11.10
2018-07-21T03:05:59.589Z,11.60
2018-07-21T03:08:02.727Z,11.93
2018-07-21T03:10:05.967Z,11.27
2018-07-21T03:12:09.340Z,10.60
2018-07-21T03:14:12.499Z,11.87
2018-07-21T03:16:15.642Z,12.97
2018-07-21T03:18:18.804Z,12.07
2018-07-21T03:20:21.949Z,10.70
2018-07-21T03:22:25.076Z,11.87
2018-07-21T03:24:28.292Z,10.70
2018-07-21T03:26:31.432Z,11.93
2018-07-21T03:28:34.600Z,11.80
2018-07-21T03:30:37.751Z,11.43
2018-07-21T03:32:40.900Z,12.23
2018-07-21T03:34:44.236Z,11.60
2018-07-21T03:36:47.380Z,11.67
2018-07-21T03:38:50.538Z,11.70
2018-07-21T03:40:53.682Z,12.67
2018-07-21T03:42:56.821Z,12.07
2018-07-21T03:44:59.956Z,13.10
2018-07-21T03:47:03.105Z,12.47
2018-07-21T03:49:06.245Z,11.90
2018-07-21T03:51:09.416Z,11.77
2018-07-21T03:53:12.547Z,12.37
2018-07-21T03:55:15.701Z,11.83
2018-07-21T03:57:18.679Z,11.83
2018-07-21T03:59:21.947Z,12.03
2018-07-21T04:01:25.172Z,11.00
2018-07-21T04:03:28.323Z,11.73
2018-07-21T04:05:31.464Z,12.73
2018-07-21T04:07:34.618Z,13.23
2018-07-21T04:09:37.801Z,12.13
2018-07-21T04:11:40.936Z,12.93
2018-07-21T04:13:44.099Z,13.03
2018-07-21T04:15:47.280Z,13.57
2018-07-21T04:17:50.424Z,12.33
2018-07-21T04:19:54.044Z,12.97
2018-07-21T04:21:57.168Z,13.73
2018-07-21T04:24:00.344Z,13.67
2018-07-21T04:26:03.299Z,12.87
2018-07-21T04:28:06.449Z,13.00
2018-07-21T04:30:09.583Z,12.93
2018-07-21T04:32:12.744Z,13.03
2018-07-21T04:34:15.651Z,13.50
2018-07-21T04:36:18.638Z,13.40
2018-07-21T04:38:21.796Z,14.40
2018-07-21T04:40:25.516Z,13.83
2018-07-21T04:42:28.664Z,14.20
2018-07-21T04:44:31.831Z,14.17
2018-07-21T04:46:34.984Z,13.83
2018-07-21T04:48:38.132Z,14.67
2018-07-21T04:50:41.288Z,14.03
2018-07-21T04:52:44.460Z,13.40
2018-07-21T04:54:47.600Z,15.30
2018-07-21T04:56:50.744Z,16.33
2018-07-21T04:58:53.920Z,14.40
2018-07-21T05:00:57.108Z,15.03
2018-07-21T05:03:00.203Z,14.27
2018-07-21T05:05:03.379Z,17.20
2018-07-21T05:07:06.516Z,16.53
2018-07-21T05:09:11.350Z,17.63
2018-07-21T05:11:14.491Z,16.00
2018-07-21T05:13:17.643Z,16.73
2018-07-21T05:15:20.792Z,16.30
2018-07-21T05:17:23.952Z,15.50
2018-07-21T05:19:27.102Z,15.60
2018-07-21T05:21:30.376Z,17.57
2018-07-21T05:23:33.516Z,17.23
2018-07-21T05:25:36.660Z,16.80
2018-07-21T05:27:39.796Z,17.10
2018-07-21T05:29:43.319Z,16.53
2018-07-21T05:31:46.454Z,16.33
2018-07-21T05:33:49.792Z,17.50
2018-07-21T05:35:53.037Z,16.30
2018-07-21T05:37:56.172Z,17.87
2018-07-21T05:39:59.328Z,16.83
2018-07-21T05:42:02.455Z,17.30
2018-07-21T05:44:05.636Z,16.13
2018-07-21T05:46:09.024Z,16.07
2018-07-21T05:48:12.171Z,16.57
2018-07-21T05:50:15.351Z,17.10
2018-07-21T05:52:18.492Z,15.47
2018-07-21T05:54:21.634Z,16.63
2018-07-21T05:56:24.880Z,15.33
2018-07-21T05:58:28.023Z,16.07
2018-07-21T06:00:31.056Z,15.60
2018-07-21T06:02:33.959Z,14.30
2018-07-21T06:04:37.104Z,14.90
2018-07-21T06:06:40.240Z,14.67
2018-07-21T06:08:43.392Z,15.20
2018-07-21T06:10:46.540Z,15.47
2018-07-21T06:12:49.751Z,15.43
2018-07-21T06:14:52.895Z,14.67
2018-07-21T06:16:56.068Z,14.30
2018-07-21T06:18:59.195Z,14.57
2018-07-21T06:21:02.343Z,13.93
2018-07-21T06:23:05.632Z,13.70
2018-07-21T06:25:08.910Z,13.50
2018-07-21T06:27:12.035Z,14.00
2018-07-21T06:29:15.163Z,13.40
2018-07-21T06:31:18.102Z,12.83
2018-07-21T06:33:21.559Z,13.67
2018-07-21T06:35:24.540Z,12.90
2018-07-21T06:37:27.403Z,12.77
2018-07-21T06:39:31.075Z,13.17
2018-07-21T06:41:34.078Z,12.70
2018-07-21T06:43:37.063Z,12.80
2018-07-21T06:45:40.038Z,12.13
2018-07-21T06:47:43.171Z,12.77
2018-07-21T06:49:46.313Z,11.67
2018-07-21T06:51:50.200Z,10.20
2018-07-21T06:53:53.368Z,12.30
2018-07-21T06:55:56.532Z,10.43
2018-07-21T06:57:59.655Z,11.33
2018-07-21T07:00:02.809Z,11.03
2018-07-21T07:02:06.368Z,10.77
2018-07-21T07:04:09.508Z,10.70
2018-07-21T07:06:12.640Z,11.50
2018-07-21T07:08:15.779Z,11.80
2018-07-21T07:10:19.006Z,10.43
2018-07-21T07:12:22.099Z,10.90
2018-07-21T07:14:25.240Z,11.27
2018-07-21T07:16:28.434Z,10.87
2018-07-21T07:18:31.628Z,11.90
2018-07-21T07:20:34.767Z,11.10
2018-07-21T07:22:37.918Z,11.07
2018-07-21T07:24:41.070Z,10.83
2018-07-21T07:26:44.248Z,10.47
2018-07-21T07:28:47.387Z,10.53
2018-07-21T07:30:50.539Z,11.63
2018-07-21T07:32:53.683Z,10.60
2018-07-21T07:34:56.826Z,11.70
2018-07-21T07:36:59.963Z,10.60
2018-07-21T07:39:03.145Z,11.97
2018-07-21T07:41:06.383Z,11.50
2018-07-21T07:43:09.556Z,11.27
2018-07-21T07:45:12.700Z,11.50
2018-07-21T07:47:15.880Z,10.80
2018-07-21T07:49:19.034Z,11.30
2018-07-21T07:51:22.189Z,13.00
2018-07-21T07:53:25.373Z,11.57
2018-07-21T07:55:33.280Z,11.23
2018-07-21T07:57:36.495Z,10.37
2018-07-21T07:59:39.407Z,11.13
2018-07-21T08:01:42.590Z,10.80
2018-07-21T08:03:45.781Z,11.80
2018-07-21T08:05:48.919Z,14.27
2018-07-21T08:07:52.103Z,12.43
2018-07-21T08:09:55.263Z,11.80
2018-07-21T08:11:58.424Z,11.87
2018-07-21T08:14:01.540Z,11.07
2018-07-21T08:16:04.707Z,11.97
2018-07-21T08:18:07.937Z,10.80
2018-07-21T08:20:11.051Z,11.97
2018-07-21T08:22:14.154Z,11.97
2018-07-21T08:24:17.238Z,11.40
2018-07-21T08:26:20.338Z,13.90
2018-07-21T08:28:23.423Z,13.10
2018-07-21T08:30:26.515Z,12.83
2018-07-21T08:32:29.621Z,12.97
2018-07-21T08:34:32.743Z,13.93
2018-07-21T08:36:35.852Z,13.53
2018-07-21T08:38:38.940Z,12.60
2018-07-21T08:40:42.046Z,12.67
2018-07-21T08:42:45.145Z,12.30
2018-07-21T08:44:48.236Z,12.60
2018-07-21T08:46:51.427Z,12.80
2018-07-21T08:48:54.525Z,13.47
2018-07-21T08:50:57.663Z,13.60
2018-07-21T08:53:00.757Z,12.20
2018-07-21T08:55:03.856Z,11.63
2018-07-21T08:57:06.968Z,12.70
2018-07-21T08:59:10.072Z,13.97
2018-07-21T09:01:13.172Z,14.03
2018-07-21T09:03:16.276Z,12.60
2018-07-21T09:05:19.196Z,14.10
2018-07-21T09:07:22.183Z,12.27
2018-07-21T09:09:25.155Z,14.83
2018-07-21T09:11:28.139Z,11.10
2018-07-21T09:13:31.031Z,11.67
2018-07-21T09:15:33.902Z,12.30
2018-07-21T09:17:36.791Z,10.47
2018-07-21T09:19:39.904Z,12.17
2018-07-21T09:21:43.013Z,12.17
2018-07-21T09:23:46.107Z,13.67
2018-07-21T09:25:49.207Z,13.80
2018-07-21T09:27:52.299Z,13.43
2018-07-21T09:29:55.455Z,11.83
2018-07-21T09:31:58.533Z,12.80
2018-07-21T09:34:01.691Z,12.20
2018-07-21T09:36:04.731Z,12.80
2018-07-21T09:38:07.815Z,11.80
2018-07-21T09:40:10.955Z,11.97
2018-07-21T09:42:14.004Z,12.70
2018-07-21T09:44:17.112Z,11.27
2018-07-21T09:46:20.215Z,12.73
2018-07-21T09:48:23.299Z,12.60
2018-07-21T09:50:26.398Z,12.90
2018-07-21T09:52:29.488Z,11.90
2018-07-21T09:54:32.703Z,11.70
2018-07-21T09:56:35.787Z,13.73
2018-07-21T09:58:38.912Z,13.90
2018-07-21T10:00:47.219Z,12.90
2018-07-21T10:02:50.359Z,13.00
2018-07-21T10:04:53.653Z,14.50
2018-07-21T10:06:56.793Z,14.87
2018-07-21T10:08:59.946Z,16.40
2018-07-21T10:11:02.919Z,13.63
2018-07-21T10:13:06.580Z,13.03
2018-07-21T10:15:09.747Z,13.50
2018-07-21T10:17:12.875Z,13.77
2018-07-21T10:19:16.028Z,13.93
2018-07-21T10:21:19.059Z,14.40
2018-07-21T10:23:21.985Z,12.07
2018-07-21T10:25:30.528Z,12.50
2018-07-21T10:27:39.063Z,12.73
2018-07-21T10:29:42.223Z,12.20
2018-07-21T10:31:45.363Z,11.03
2018-07-21T10:33:48.495Z,12.77
2018-07-21T10:35:51.674Z,11.90
2018-07-21T10:37:54.767Z,10.70
2018-07-21T10:39:57.922Z,9.43
2018-07-21T10:42:00.859Z,9.97
2018-07-21T10:44:04.021Z,10.17
2018-07-21T10:46:07.355Z,10.13
2018-07-21T10:48:10.513Z,10.00
2018-07-21T10:50:13.648Z,9.83
2018-07-21T10:52:16.795Z,9.93
2018-07-21T10:54:19.940Z,10.10
2018-07-21T10:56:23.075Z,8.97
2018-07-21T10:58:26.249Z,10.03
2018-07-21T11:00:29.412Z,10.77
2018-07-21T11:02:32.573Z,9.50
2018-07-21T11:04:35.738Z,9.57
2018-07-21T11:06:38.895Z,8.90
2018-07-21T11:08:42.048Z,10.30
2018-07-21T11:10:45.215Z,10.40
2018-07-21T11:12:48.336Z,9.20
2018-07-21T11:14:51.500Z,10.60
2018-07-21T11:16:54.642Z,9.40
2018-07-21T11:18:57.812Z,10.30
2018-07-21T11:21:00.965Z,10.00
2018-07-21T11:23:04.103Z,11.17
2018-07-21T11:25:09.231Z,10.00
2018-07-21T11:27:12.351Z,9.77
2018-07-21T11:29:15.506Z,9.90
2018-07-21T11:31:18.427Z,9.40
2018-07-21T11:33:21.571Z,8.50
2018-07-21T11:35:24.900Z,8.50
2018-07-21T11:37:27.874Z,8.60
2018-07-21T11:39:31.016Z,9.37
2018-07-21T11:41:34.196Z,8.87
2018-07-21T11:43:37.333Z,7.90
2018-07-21T11:45:40.478Z,10.57
2018-07-21T11:47:43.641Z,9.43
2018-07-21T11:49:46.808Z,9.53
2018-07-21T11:51:49.931Z,9.43
2018-07-21T11:53:53.079Z,9.50
2018-07-21T11:55:55.998Z,8.50
2018-07-21T11:57:59.135Z,8.13
2018-07-21T12:00:02.394Z,7.90
2018-07-21T12:02:05.475Z,8.90
2018-07-21T12:04:08.579Z,7.70
2018-07-21T12:06:11.464Z,8.93
2018-07-21T12:08:14.558Z,8.60
2018-07-21T12:10:17.672Z,9.03
2018-07-21T12:12:20.755Z,9.00
2018-07-21T12:14:23.670Z,8.80
2018-07-21T12:16:26.759Z,8.70
2018-07-21T12:18:29.878Z,9.40
2018-07-21T12:20:32.963Z,8.77
2018-07-21T12:22:36.079Z,8.10
2018-07-21T12:24:39.184Z,8.60
2018-07-21T12:26:42.288Z,8.37
2018-07-21T12:28:45.387Z,8.40
2018-07-21T12:30:48.301Z,9.17
2018-07-21T12:32:51.425Z,9.97
2018-07-21T12:34:54.579Z,8.37
2018-07-21T12:36:57.652Z,7.83
2018-07-21T12:39:00.747Z,8.40
2018-07-21T12:41:03.634Z,8.37
2018-07-21T12:43:06.723Z,9.07
2018-07-21T12:45:09.820Z,7.77
2018-07-21T12:47:12.908Z,7.87
2018-07-21T12:49:15.992Z,8.33
2018-07-21T12:51:19.086Z,8.57
2018-07-21T12:53:22.172Z,8.37
2018-07-21T12:55:25.067Z,8.20
2018-07-21T12:57:28.147Z,7.93
2018-07-21T12:59:31.128Z,8.30
2018-07-21T13:01:34.236Z,8.67
2018-07-21T13:03:37.195Z,8.03
2018-07-21T13:05:40.295Z,8.87
2018-07-21T13:07:43.255Z,7.40
2018-07-21T13:09:46.379Z,7.60
2018-07-21T13:11:51.311Z,8.43
2018-07-21T13:13:54.177Z,7.23
2018-07-21T13:15:57.253Z,8.10
2018-07-21T13:18:00.331Z,8.37
2018-07-21T13:20:03.435Z,7.60
2018-07-21T13:22:07.139Z,7.00
2018-07-21T13:24:10.020Z,7.00
2018-07-21T13:26:12.953Z,6.77
2018-07-21T13:28:16.051Z,7.27
2018-07-21T13:30:19.143Z,7.00
2018-07-21T13:32:22.042Z,7.43
2018-07-21T13:34:24.933Z,6.87
2018-07-21T13:36:27.871Z,5.73
2018-07-21T13:38:30.976Z,6.53
2018-07-21T13:40:33.873Z,6.10
2018-07-21T13:42:36.964Z,6.20
2018-07-21T13:44:40.057Z,6.57
2018-07-21T13:46:43.144Z,6.17
2018-07-21T13:48:46.239Z,6.53
2018-07-21T13:50:49.894Z,5.40
2018-07-21T13:52:52.979Z,6.37
2018-07-21T13:54:56.093Z,5.80
2018-07-21T13:56:59.163Z,5.80
2018-07-21T13:59:02.260Z,5.47
2018-07-21T14:01:05.379Z,6.30
2018-07-21T14:03:08.463Z,6.67
2018-07-21T14:05:11.560Z,6.83
2018-07-21T14:07:14.656Z,6.13
2018-07-21T14:09:17.748Z,5.63
2018-07-21T14:11:20.731Z,7.20
2018-07-21T14:13:23.607Z,5.53
2018-07-21T14:15:26.506Z,6.50
2018-07-21T14:17:29.600Z,5.70
2018-07-21T14:19:32.748Z,5.87
2018-07-21T14:21:35.869Z,6.27
2018-07-21T14:23:39.983Z,5.10
2018-07-21T14:25:43.084Z,6.60
2018-07-21T14:27:46.173Z,5.97
2018-07-21T14:29:49.317Z,6.43
2018-07-21T14:31:52.359Z,5.50
2018-07-21T14:33:55.472Z,5.73
2018-07-21T14:35:58.520Z,5.50
2018-07-21T14:38:01.517Z,6.47
2018-07-21T14:40:04.907Z,6.60
2018-07-21T14:42:08.000Z,6.27
2018-07-21T14:44:11.201Z,6.10
2018-07-21T14:46:14.303Z,6.90
2018-07-21T14:48:17.624Z,7.20
2018-07-21T14:50:20.746Z,7.50
2018-07-21T14:52:23.851Z,6.93
2018-07-21T14:54:26.984Z,6.37
2018-07-21T14:56:30.104Z,7.53
2018-07-21T14:58:33.231Z,6.30
2018-07-21T15:00:36.567Z,6.37
2018-07-21T15:02:39.737Z,6.17
2018-07-21T15:04:42.834Z,5.97
2018-07-21T15:06:46.002Z,6.33
2018-07-21T15:08:49.041Z,6.70
2018-07-21T15:10:52.140Z,6.63
2018-07-21T15:12:55.019Z,6.03
2018-07-21T15:14:58.021Z,6.50
2018-07-21T15:17:01.360Z,6.27
2018-07-21T15:19:04.496Z,6.00
2018-07-21T15:21:07.623Z,7.00
2018-07-21T15:23:10.692Z,6.60
2018-07-21T15:25:13.849Z,6.07
2018-07-21T15:27:16.709Z,6.77
2018-07-21T15:29:20.163Z,7.13
2018-07-21T15:31:23.346Z,7.23
2018-07-21T15:33:26.408Z,8.27
2018-07-21T15:35:29.505Z,6.93
2018-07-21T15:37:32.595Z,6.93
2018-07-21T15:39:35.704Z,8.50
2018-07-21T15:41:38.995Z,11.17
2018-07-21T15:43:42.100Z,12.43
2018-07-21T15:45:45.191Z,10.77
2018-07-21T15:47:48.211Z,10.87
2018-07-21T15:49:51.122Z,10.30
2018-07-21T15:51:55.268Z,10.40
2018-07-21T15:53:58.364Z,11.73
2018-07-21T15:56:01.447Z,11.90
2018-07-21T15:58:04.557Z,15.97
2018-07-21T16:00:07.976Z,17.63
2018-07-21T16:02:11.115Z,18.07
2018-07-21T16:04:14.280Z,16.70
2018-07-21T16:06:17.456Z,16.40
2018-07-21T16:08:20.386Z,16.50
2018-07-21T16:10:23.295Z,16.40
2018-07-21T16:12:26.226Z,18.93
2018-07-21T16:14:29.160Z,20.30
2018-07-21T16:16:32.060Z,19.40
2018-07-21T16:18:35.025Z,19.23
2018-07-21T16:20:38.009Z,16.80
2018-07-21T16:22:40.898Z,16.77
2018-07-21T16:24:43.825Z,19.10
2018-07-21T16:26:46.746Z,20.97
2018-07-21T16:28:49.721Z,21.67
2018-07-21T16:30:52.611Z,18.20
2018-07-21T16:32:55.523Z,18.83
2018-07-21T16:34:58.451Z,18.07
2018-07-21T16:37:01.415Z,17.37
2018-07-21T16:39:06.839Z,17.07
2018-07-21T16:41:10.112Z,17.77
2018-07-21T16:43:13.247Z,16.37
2018-07-21T16:45:16.399Z,16.50
2018-07-21T16:47:19.544Z,16.20
2018-07-21T16:49:22.693Z,17.60
2018-07-21T16:51:25.918Z,18.10
2018-07-21T16:53:29.200Z,16.93
2018-07-21T16:55:32.355Z,17.90
2018-07-21T16:57:35.511Z,19.53
2018-07-21T16:59:39.168Z,21.10
2018-07-21T17:01:42.267Z,19.70
2018-07-21T17:03:45.145Z,21.73
2018-07-21T17:05:48.242Z,17.20
2018-07-21T17:07:51.402Z,16.23
2018-07-21T17:09:54.467Z,20.50
2018-07-21T17:11:57.543Z,19.27
2018-07-21T17:14:00.639Z,19.60
2018-07-21T17:16:03.536Z,18.30
2018-07-21T17:18:06.644Z,18.57
2018-07-21T17:20:09.606Z,17.30
2018-07-21T17:22:12.479Z,17.83
2018-07-21T17:24:15.380Z,18.03
2018-07-21T17:26:18.259Z,16.10
2018-07-21T17:28:21.142Z,16.27
2018-07-21T17:30:24.131Z,18.00
2018-07-21T17:32:27.307Z,16.67
2018-07-21T17:34:30.498Z,16.70
2018-07-21T17:36:33.376Z,16.67
2018-07-21T17:38:36.272Z,17.00
2018-07-21T17:40:39.374Z,16.10
2018-07-21T17:42:42.323Z,16.93
2018-07-21T17:44:45.253Z,16.40
2018-07-21T17:46:48.312Z,17.73
2018-07-21T17:48:51.420Z,19.63
2018-07-21T17:50:54.616Z,19.73
2018-07-21T17:52:57.729Z,20.13
2018-07-21T17:55:00.907Z,20.03
2018-07-21T17:57:04.092Z,18.97
2018-07-21T17:59:07.239Z,18.60
2018-07-21T18:01:10.336Z,18.33
2018-07-21T18:03:13.274Z,21.80
2018-07-21T18:05:16.191Z,21.17
2018-07-21T18:07:19.099Z,18.30
2018-07-21T18:09:22.019Z,20.97
2018-07-21T18:11:24.976Z,19.33
2018-07-21T18:13:27.912Z,21.00
2018-07-21T18:15:30.815Z,23.07
2018-07-21T18:17:33.784Z,23.00
2018-07-21T18:19:36.678Z,21.00
2018-07-21T18:21:39.679Z,24.57
2018-07-21T18:23:42.788Z,23.87
2018-07-21T18:25:45.749Z,25.40
2018-07-21T18:27:48.734Z,25.70
2018-07-21T18:29:51.884Z,25.50
2018-07-21T18:31:55.020Z,26.23
2018-07-21T18:33:58.167Z,25.80
2018-07-21T18:36:01.298Z,24.80
2018-07-21T18:38:04.623Z,26.30
2018-07-21T18:40:07.950Z,24.70
2018-07-21T18:42:11.052Z,23.53
2018-07-21T18:44:14.197Z,25.13
2018-07-21T18:46:17.358Z,25.27
2018-07-21T18:48:20.503Z,26.40
2018-07-21T18:50:24.576Z,27.50
2018-07-21T18:52:27.763Z,27.23
2018-07-21T18:54:31.664Z,24.50
2018-07-21T18:56:34.848Z,25.57
2018-07-21T18:58:39.108Z,26.23
2018-07-21T19:00:42.304Z,27.53
2018-07-21T19:02:45.407Z,23.03
2018-07-21T19:04:48.516Z,23.80
2018-07-21T19:06:51.632Z,25.07
2018-07-21T19:09:00.655Z,23.90
2018-07-21T19:11:03.749Z,26.03
2018-07-21T19:13:07.163Z,24.47
2018-07-21T19:15:15.066Z,19.20
2018-07-21T19:17:17.944Z,20.03
2018-07-21T19:19:20.980Z,20.40
2018-07-21T19:21:23.888Z,21.57
2018-07-21T19:23:26.763Z,21.60
2018-07-21T19:25:35.163Z,21.20
2018-07-21T19:27:38.044Z,21.77
2018-07-21T19:29:40.931Z,21.50
2018-07-21T19:31:49.331Z,21.73
2018-07-21T19:33:52.249Z,23.40
2018-07-21T19:35:55.211Z,23.30
2018-07-21T19:37:58.192Z,24.97
2018-07-21T19:40:01.111Z,25.03
2018-07-21T19:42:04.379Z,27.80
2018-07-21T19:44:07.497Z,26.10
2018-07-21T19:46:11.040Z,26.00
2018-07-21T19:48:14.123Z,25.53
2018-07-21T19:50:17.243Z,26.13
2018-07-21T19:52:20.128Z,26.40
2018-07-21T19:54:23.228Z,26.90
2018-07-21T19:56:26.332Z,23.23
2018-07-21T19:58:29.419Z,26.50
2018-07-21T20:00:32.519Z,25.17
2018-07-21T20:02:35.932Z,25.27
2018-07-21T20:04:39.080Z,25.17
2018-07-21T20:06:42.215Z,25.87
2018-07-21T20:08:45.351Z,23.97
2018-07-21T20:10:48.644Z,25.50
2018-07-21T20:12:51.810Z,24.80
2018-07-21T20:14:55.542Z,26.60
2018-07-21T20:16:58.667Z,24.50
2018-07-21T20:19:01.800Z,26.17
2018-07-21T20:21:04.842Z,30.00
2018-07-21T20:23:07.668Z,26.77
2018-07-21T20:25:10.598Z,29.57
2018-07-21T20:27:13.502Z,29.70
2018-07-21T20:29:16.428Z,26.33
2018-07-21T20:31:19.415Z,25.93
2018-07-21T20:33:22.314Z,22.50
2018-07-21T20:35:25.279Z,22.57
2018-07-21T20:37:28.262Z,23.57
2018-07-21T20:39:31.160Z,23.13
2018-07-21T20:41:34.087Z,22.40
2018-07-21T20:43:37.226Z,26.70
2018-07-21T20:45:40.159Z,25.63
2018-07-21T20:47:43.071Z,27.73
2018-07-21T20:49:46.063Z,29.27
2018-07-21T20:51:49.060Z,30.00
2018-07-21T20:53:52.019Z,29.23
2018-07-21T20:55:54.971Z,27.80
2018-07-21T20:58:01.267Z,28.87
2018-07-21T21:00:04.431Z,29.47
2018-07-21T21:02:07.283Z,27.90
2018-07-21T21:04:10.211Z,28.60
2018-07-21T21:06:13.166Z,23.53
2018-07-21T21:08:16.078Z,27.53
2018-07-21T21:10:19.052Z,26.67
2018-07-21T21:12:22.038Z,26.43
2018-07-21T21:14:24.930Z,28.00
2018-07-21T21:16:27.895Z,27.17
2018-07-21T21:18:30.797Z,27.50
2018-07-21T21:20:33.776Z,29.30
2018-07-21T21:22:36.759Z,29.93
2018-07-21T21:24:39.715Z,29.67
2018-07-21T21:26:42.635Z,30.07
2018-07-21T21:28:45.555Z,29.40
2018-07-21T21:30:48.724Z,31.03
2018-07-21T21:32:51.884Z,26.97
2018-07-21T21:34:55.031Z,30.07
2018-07-21T21:36:58.168Z,32.33
2018-07-21T21:39:01.450Z,30.63
2018-07-21T21:41:04.591Z,30.10
2018-07-21T21:43:07.729Z,30.33
2018-07-21T21:45:10.883Z,29.83
2018-07-21T21:47:14.051Z,31.53
2018-07-21T21:49:17.202Z,29.90
2018-07-21T21:51:20.449Z,26.97
2018-07-21T21:53:23.607Z,28.43
2018-07-21T21:55:26.804Z,31.23
2018-07-21T21:57:30.083Z,31.50
2018-07-21T21:59:33.242Z,32.23
2018-07-21T22:01:36.505Z,29.90
2018-07-21T22:03:39.635Z,29.20
2018-07-21T22:05:42.766Z,34.03
2018-07-21T22:07:45.923Z,33.57
2018-07-21T22:09:49.063Z,31.60
2018-07-21T22:11:52.209Z,30.50
2018-07-21T22:13:55.346Z,34.10
2018-07-21T22:15:59.096Z,32.20
2018-07-21T22:18:02.236Z,31.90
2018-07-21T22:20:05.672Z,28.17
2018-07-21T22:22:08.836Z,30.07
2018-07-21T22:24:12.008Z,31.50
2018-07-21T22:26:15.199Z,31.83
2018-07-21T22:28:18.311Z,31.93
2018-07-21T22:30:21.896Z,33.90
2018-07-21T22:32:25.055Z,32.80
2018-07-21T22:34:28.227Z,33.90
2018-07-21T22:36:31.320Z,35.80
2018-07-21T22:38:34.462Z,32.87
2018-07-21T22:40:37.600Z,35.10
2018-07-21T22:42:40.751Z,34.67
2018-07-21T22:44:43.953Z,33.47
2018-07-21T22:46:47.068Z,37.37
2018-07-21T22:48:50.191Z,33.70
2018-07-21T22:50:53.339Z,35.63
2018-07-21T22:52:56.481Z,33.13
2018-07-21T22:54:59.615Z,33.40
2018-07-21T22:57:02.770Z,32.47
2018-07-21T22:59:06.279Z,31.00
2018-07-21T23:01:09.410Z,32.30
2018-07-21T23:03:12.535Z,32.33
2018-07-21T23:05:15.635Z,31.10
2018-07-21T23:07:18.822Z,32.67
2018-07-21T23:09:21.927Z,33.80
2018-07-21T23:11:25.007Z,29.53
2018-07-21T23:13:28.102Z,34.30
2018-07-21T23:15:31.196Z,32.23
2018-07-21T23:17:34.339Z,30.23
2018-07-21T23:19:37.450Z,35.90
2018-07-21T23:21:40.532Z,33.30
2018-07-21T23:23:43.660Z,36.70
2018-07-21T23:25:46.752Z,34.23
2018-07-21T23:27:49.859Z,32.60
2018-07-21T23:29:52.971Z,32.90
2018-07-21T23:31:56.069Z,33.00
2018-07-21T23:33:59.176Z,30.10
2018-07-21T23:36:02.264Z,31.70
2018-07-21T23:38:05.363Z,29.80
2018-07-21T23:40:08.482Z,30.00
2018-07-21T23:42:11.609Z,30.30
2018-07-21T23:44:14.702Z,29.87
2018-07-21T23:46:17.796Z,29.80
2018-07-21T23:48:20.912Z,30.67
2018-07-21T23:50:24.048Z,32.70
2018-07-21T23:52:27.139Z,33.53
2018-07-21T23:54:30.233Z,33.07
2018-07-21T23:56:33.315Z,36.07
2018-07-21T23:58:36.409Z,34.00
